createdAt,value
2024-03-28T00:01:09.146Z,97890.98
2024-03-28T00:06:11.810Z,97892.19
2024-03-28T00:11:14.406Z,97894.15
2024-03-28T00:16:17.003Z,97889.63
2024-03-28T00:21:19.684Z,97880.66
2024-03-28T00:26:22.208Z,97877.65
2024-03-28T00:31:24.920Z,97873.91
2024-03-28T00:36:27.546Z,97867.85
2024-03-28T00:41:30.150Z,97863.55
2024-03-28T00:46:32.782Z,97854.62
2024-03-28T00:51:35.324Z,97847.86
2024-03-28T00:56:38.036Z,97844.28
2024-03-28T01:01:41.104Z,97838.77
2024-03-28T01:06:43.737Z,97829.60
2024-03-28T01:11:46.318Z,97825.58
2024-03-28T01:16:51.403Z,97826.08
2024-03-28T01:21:54.068Z,97817.08
2024-03-28T01:26:57.696Z,97820.54
2024-03-28T01:32:00.325Z,97816.20
2024-03-28T01:37:03.077Z,97812.13
2024-03-28T01:42:05.662Z,97811.55
2024-03-28T01:47:25.861Z,97802.78
2024-03-28T01:52:31.850Z,97800.46
2024-03-28T01:57:35.111Z,97798.15
2024-03-28T02:02:41.355Z,97795.70
2024-03-28T02:07:43.962Z,97797.17
2024-03-28T02:12:46.778Z,97792.91
2024-03-28T02:17:50.953Z,97788.35
2024-03-28T02:22:53.558Z,97787.70
2024-03-28T02:27:56.222Z,97785.04
2024-03-28T02:32:59.117Z,97780.08
2024-03-28T02:38:01.786Z,97775.16
2024-03-28T02:43:04.677Z,97768.55
2024-03-28T02:48:09.145Z,97770.84
2024-03-28T02:53:11.885Z,97767.27
2024-03-28T02:58:14.442Z,97761.42
2024-03-28T03:03:17.033Z,97759.66
2024-03-28T03:08:19.839Z,97757.18
2024-03-28T03:13:22.600Z,97754.13
2024-03-28T03:18:27.977Z,97749.21
2024-03-28T03:23:38.796Z,97751.14
2024-03-28T03:29:00.182Z,97746.16
2024-03-28T03:34:21.562Z,97738.34
2024-03-28T03:39:24.920Z,97729.98
2024-03-28T03:44:28.308Z,97729.94
2024-03-28T03:49:31.046Z,97723.79
2024-03-28T03:54:33.750Z,97714.92
2024-03-28T03:59:38.338Z,97706.86
2024-03-28T04:04:41.313Z,97698.56
2024-03-28T04:09:44.010Z,97697.73
2024-03-28T04:14:47.259Z,97684.91
2024-03-28T04:19:50.103Z,97678.54
2024-03-28T04:24:54.707Z,97673.70
2024-03-28T04:30:01.865Z,97665.73
2024-03-28T04:35:05.884Z,97661.95
2024-03-28T04:40:10.282Z,97650.77
2024-03-28T04:45:14.096Z,97645.33
2024-03-28T04:50:18.174Z,97644.46
2024-03-28T04:55:21.624Z,97641.77
2024-03-28T05:00:25.695Z,97645.54
2024-03-28T05:05:28.648Z,97639.19
2024-03-28T05:10:31.548Z,97640.61
2024-03-28T05:15:35.631Z,97645.17
2024-03-28T05:20:38.276Z,97650.59
2024-03-28T05:25:41.019Z,97660.17
2024-03-28T05:30:43.848Z,97671.77
2024-03-28T05:35:47.039Z,97663.79
2024-03-28T05:40:49.704Z,97656.31
2024-03-28T05:45:52.351Z,97680.42
2024-03-28T05:50:55.490Z,97717.64
2024-03-28T05:55:58.192Z,97698.83
2024-03-28T06:01:00.974Z,97691.60
2024-03-28T06:06:04.320Z,97680.23
2024-03-28T06:11:07.418Z,97680.64
2024-03-28T06:16:11.431Z,97675.23
2024-03-28T06:21:14.228Z,97666.89
2024-03-28T06:26:16.904Z,97658.27
2024-03-28T06:31:22.617Z,97656.73
2024-03-28T06:36:25.265Z,97644.71
2024-03-28T06:41:28.731Z,97637.69
2024-03-28T06:46:31.446Z,97634.33
2024-03-28T06:51:34.181Z,97624.14
2024-03-28T06:56:36.870Z,97616.94
2024-03-28T07:01:39.615Z,97623.22
2024-03-28T07:06:42.474Z,97621.90
2024-03-28T07:11:47.041Z,97616.27
2024-03-28T07:16:50.146Z,97608.98
2024-03-28T07:21:53.149Z,97614.70
2024-03-28T07:26:56.123Z,97622.40
2024-03-28T07:31:58.746Z,97625.69
2024-03-28T07:37:01.755Z,97619.00
2024-03-28T07:42:04.961Z,97616.95
2024-03-28T07:47:07.572Z,97611.80
2024-03-28T07:52:10.270Z,97618.20
2024-03-28T07:57:13.158Z,97618.21
2024-03-28T08:02:16.141Z,97610.81
2024-03-28T08:07:18.893Z,97606.38
2024-03-28T08:12:21.608Z,97599.67
2024-03-28T08:17:24.215Z,97593.73
2024-03-28T08:22:27.035Z,97588.96
2024-03-28T08:27:31.168Z,97600.21
2024-03-28T08:32:35.666Z,97602.31
2024-03-28T08:37:40.374Z,97608.53
2024-03-28T08:42:44.267Z,97623.20
2024-03-28T08:47:47.188Z,97612.00
2024-03-28T08:52:50.714Z,97622.30
2024-03-28T08:57:54.183Z,97623.19
2024-03-28T09:02:57.067Z,97611.21
2024-03-28T09:07:59.852Z,97602.71
2024-03-28T09:13:03.087Z,97610.33
2024-03-28T09:18:06.890Z,97631.36
2024-03-28T09:23:11.352Z,97635.36
2024-03-28T09:28:14.808Z,97625.33
2024-03-28T09:33:17.597Z,97626.63
2024-03-28T09:38:20.315Z,97623.65
2024-03-28T09:43:23.405Z,97610.30
2024-03-28T09:48:26.863Z,97590.39
2024-03-28T09:53:30.934Z,97583.07
2024-03-28T09:58:36.354Z,97574.13
2024-03-28T10:03:41.879Z,97578.30
2024-03-28T10:08:45.597Z,97584.95
2024-03-28T10:13:48.495Z,97572.08
2024-03-28T10:18:55.384Z,97565.72
2024-03-28T10:23:58.238Z,97554.59
2024-03-28T10:29:01.624Z,97545.19
2024-03-28T10:34:05.082Z,97547.69
2024-03-28T10:39:13.012Z,97538.37
2024-03-28T10:44:16.706Z,97531.40
2024-03-28T10:49:27.138Z,97526.81
2024-03-28T10:54:47.286Z,97534.23
2024-03-28T10:59:51.554Z,97526.79
2024-03-28T11:04:55.821Z,97529.39
2024-03-28T11:10:00.593Z,97530.98
2024-03-28T11:15:05.546Z,97520.28
2024-03-28T11:20:14.970Z,97524.63
2024-03-28T11:25:27.637Z,97524.77
2024-03-28T11:30:30.415Z,97520.67
2024-03-28T11:35:33.710Z,97517.73
2024-03-28T11:40:38.207Z,97511.14
2024-03-28T11:45:59.368Z,97516.20
2024-03-28T11:51:06.822Z,97517.14
2024-03-28T11:56:14.479Z,97522.98
2024-03-28T12:01:20.030Z,97522.38
2024-03-28T12:06:25.118Z,97531.84
2024-03-28T12:11:28.981Z,97534.27
2024-03-28T12:16:31.853Z,97538.04
2024-03-28T12:21:35.411Z,97541.73
2024-03-28T12:26:38.147Z,97547.95
2024-03-28T12:31:40.893Z,97550.30
2024-03-28T12:36:43.561Z,97548.03
2024-03-28T12:41:54.361Z,97556.79
2024-03-28T12:46:57.270Z,97552.81
2024-03-28T12:51:59.874Z,97556.02
2024-03-28T12:57:04.596Z,97564.52
2024-03-28T13:02:08.068Z,97567.16
2024-03-28T13:07:13.323Z,97567.18
2024-03-28T13:12:17.061Z,97568.75
2024-03-28T13:17:19.753Z,97569.70
2024-03-28T13:22:22.465Z,97559.88
2024-03-28T13:27:43.443Z,97549.52
2024-03-28T13:32:50.832Z,97561.87
2024-03-28T13:37:54.032Z,97565.71
2024-03-28T13:42:56.769Z,97562.17
2024-03-28T13:48:00.219Z,97562.32
2024-03-28T13:53:02.874Z,97556.40
2024-03-28T13:58:05.659Z,97556.09
2024-03-28T14:03:08.431Z,97553.23
2024-03-28T14:08:12.138Z,97550.13
2024-03-28T14:13:14.823Z,97546.48
2024-03-28T14:18:18.763Z,97550.26
2024-03-28T14:23:21.397Z,97531.34
2024-03-28T14:28:24.901Z,97524.83
2024-03-28T14:33:27.609Z,97530.21
2024-03-28T14:38:30.289Z,97544.39
2024-03-28T14:43:39.030Z,97546.77
2024-03-28T14:48:42.357Z,97546.54
2024-03-28T14:53:45.014Z,97551.99
2024-03-28T14:58:47.604Z,97547.84
2024-03-28T15:03:50.240Z,97542.12
2024-03-28T15:08:53.002Z,97534.94
2024-03-28T15:13:55.672Z,97535.63
2024-03-28T15:18:59.472Z,97538.84
2024-03-28T15:24:03.464Z,97535.91
2024-03-28T15:29:09.296Z,97544.30
2024-03-28T15:34:12.175Z,97577.20
2024-03-28T15:39:15.097Z,97608.89
2024-03-28T15:44:17.697Z,97606.36
2024-03-28T15:49:20.330Z,97602.08
2024-03-28T15:54:23.070Z,97610.65
2024-03-28T15:59:25.805Z,97623.75
2024-03-28T16:04:35.288Z,97633.83
2024-03-28T16:09:38.062Z,97636.41
2024-03-28T16:14:41.103Z,97640.63
2024-03-28T16:19:43.957Z,97635.95
2024-03-28T16:24:46.838Z,97640.86
2024-03-28T16:29:50.234Z,97645.98
2024-03-28T16:34:52.949Z,97666.40
2024-03-28T16:39:56.424Z,97680.41
2024-03-28T16:44:59.234Z,97693.10
2024-03-28T16:50:02.345Z,97705.96
2024-03-28T16:55:06.324Z,97709.67
2024-03-28T17:00:09.591Z,97728.33
2024-03-28T17:05:13.956Z,97731.33
2024-03-28T17:10:18.470Z,97740.79
2024-03-28T17:15:21.142Z,97747.21
2024-03-28T17:20:23.909Z,97756.83
2024-03-28T17:25:28.930Z,97763.45
2024-03-28T17:30:31.682Z,97770.85
2024-03-28T17:35:34.421Z,97786.96
2024-03-28T17:40:37.585Z,97791.77
2024-03-28T17:45:40.764Z,97802.31
2024-03-28T17:50:47.024Z,97816.71
2024-03-28T17:55:49.895Z,97825.80
2024-03-28T18:00:52.629Z,97846.91
2024-03-28T18:05:59.930Z,97850.21
2024-03-28T18:11:02.610Z,97858.03
2024-03-28T18:16:05.855Z,97865.38
2024-03-28T18:21:08.582Z,97863.64
2024-03-28T18:26:11.310Z,97873.04
2024-03-28T18:31:14.018Z,97878.38
2024-03-28T18:36:17.572Z,97875.16
2024-03-28T18:41:20.329Z,97886.18
2024-03-28T18:46:23.049Z,97896.67
2024-03-28T18:51:26.272Z,97906.74
2024-03-28T18:56:29.855Z,97910.55
2024-03-28T19:01:35.384Z,97900.30
2024-03-28T19:06:38.331Z,97898.59
2024-03-28T19:11:40.978Z,97904.14
2024-03-28T19:16:43.662Z,97916.61
2024-03-28T19:21:46.414Z,97919.99
2024-03-28T19:26:49.318Z,97918.08
2024-03-28T19:31:51.997Z,97915.59
2024-03-28T19:36:54.796Z,97918.90
2024-03-28T19:41:57.584Z,97920.22
2024-03-28T19:47:00.189Z,97916.38
2024-03-28T19:52:02.856Z,97910.73
2024-03-28T19:57:05.698Z,97902.33
2024-03-28T20:02:08.405Z,97894.67
2024-03-28T20:07:14.304Z,97901.55
2024-03-28T20:12:17.399Z,97904.17
2024-03-28T20:17:20.859Z,97912.35
2024-03-28T20:22:24.579Z,97919.29
2024-03-28T20:27:27.226Z,97918.98
2024-03-28T20:32:32.485Z,97917.55
2024-03-28T20:37:35.790Z,97913.73
2024-03-28T20:42:38.407Z,97923.69
2024-03-28T20:47:41.103Z,97932.64
2024-03-28T20:52:43.874Z,97936.13
2024-03-28T20:57:47.488Z,97943.20
2024-03-28T21:02:51.210Z,97952.57
2024-03-28T21:08:12.571Z,97955.90
2024-03-28T21:13:19.671Z,97953.13
2024-03-28T21:18:22.859Z,97949.91
2024-03-28T21:23:25.515Z,97953.92
2024-03-28T21:28:28.674Z,97958.39
2024-03-28T21:33:31.269Z,97959.77
2024-03-28T21:38:34.771Z,97966.70
2024-03-28T21:43:40.986Z,97971.05
2024-03-28T21:48:43.603Z,97978.80
2024-03-28T21:53:46.476Z,97990.18
2024-03-28T21:58:51.102Z,97994.60
2024-03-28T22:03:53.736Z,97988.95
2024-03-28T22:08:56.614Z,97996.94
2024-03-28T22:13:59.252Z,98001.84
2024-03-28T22:19:01.932Z,98001.30
2024-03-28T22:24:05.312Z,97995.05
2024-03-28T22:29:08.016Z,98000.39
2024-03-28T22:34:10.659Z,98004.55
2024-03-28T22:39:14.055Z,98018.98
2024-03-28T22:44:16.600Z,98022.38
2024-03-28T22:49:19.167Z,98020.88
2024-03-28T22:54:21.819Z,98027.96
2024-03-28T22:59:24.444Z,98029.55
2024-03-28T23:04:27.023Z,98033.21
2024-03-28T23:09:29.626Z,98039.29
2024-03-28T23:14:32.228Z,98042.77
2024-03-28T23:19:34.916Z,98044.96
2024-03-28T23:24:37.566Z,98054.44
2024-03-28T23:29:40.791Z,98058.89
2024-03-28T23:34:43.370Z,98059.27
2024-03-28T23:39:45.991Z,98066.89
2024-03-28T23:44:48.721Z,98067.38
2024-03-28T23:49:52.141Z,98074.16
2024-03-28T23:54:54.728Z,98081.54
2024-03-28T23:59:58.663Z,98087.14
